createdAt,value
2023-02-14T00:01:48.521Z,7.18
2023-02-14T00:04:16.274Z,7.32
2023-02-14T00:06:43.954Z,7.05
2023-02-14T00:09:12.181Z,7.05
2023-02-14T00:11:39.704Z,7.05
2023-02-14T00:14:26.207Z,7.55
2023-02-14T00:16:53.636Z,7.35
2023-02-14T00:19:21.304Z,7.28
2023-02-14T00:21:48.847Z,7.00
2023-02-14T00:24:17.149Z,7.05
2023-02-14T00:26:44.549Z,7.63
2023-02-14T00:29:15.719Z,7.50
2023-02-14T00:31:43.167Z,7.13
2023-02-14T00:34:10.784Z,7.45
2023-02-14T00:36:38.251Z,7.78
2023-02-14T00:39:05.809Z,7.20
2023-02-14T00:41:33.288Z,7.20
2023-02-14T00:44:00.703Z,6.72
2023-02-14T00:46:29.656Z,6.95
2023-02-14T00:48:57.315Z,7.43
2023-02-14T00:51:24.880Z,7.63
2023-02-14T00:53:52.402Z,6.70
2023-02-14T00:56:20.200Z,6.93
2023-02-14T00:58:47.759Z,6.68
2023-02-14T01:01:15.516Z,6.72
2023-02-14T01:03:44.303Z,6.65
2023-02-14T01:06:11.766Z,6.40
2023-02-14T01:08:39.180Z,6.85
2023-02-14T01:11:10.698Z,6.30
2023-02-14T01:13:38.104Z,6.80
2023-02-14T01:16:07.286Z,6.47
2023-02-14T01:18:34.804Z,6.50
2023-02-14T01:21:16.104Z,6.32
2023-02-14T01:23:43.513Z,5.88
2023-02-14T01:26:11.101Z,6.20
2023-02-14T01:28:38.662Z,5.60
2023-02-14T01:31:10.445Z,6.00
2023-02-14T01:33:38.141Z,6.05
2023-02-14T01:36:05.828Z,6.28
2023-02-14T01:38:34.536Z,5.70
2023-02-14T01:41:02.097Z,5.78
2023-02-14T01:43:29.596Z,5.78
2023-02-14T01:45:57.378Z,6.03
2023-02-14T01:48:24.885Z,5.47
2023-02-14T01:50:52.953Z,5.70
2023-02-14T01:53:22.217Z,5.70
2023-02-14T01:55:52.968Z,5.23
2023-02-14T01:58:21.276Z,5.28
2023-02-14T02:00:58.126Z,5.20
2023-02-14T02:03:27.264Z,5.50
2023-02-14T02:05:55.825Z,5.40
2023-02-14T02:08:23.213Z,5.18
2023-02-14T02:10:51.897Z,4.80
2023-02-14T02:13:20.672Z,5.38
2023-02-14T02:15:53.710Z,4.90
2023-02-14T02:18:24.785Z,5.00
2023-02-14T02:21:24.610Z,4.68
2023-02-14T02:24:02.678Z,4.85
2023-02-14T02:27:03.153Z,4.90
2023-02-14T02:30:04.017Z,4.70
2023-02-14T02:33:07.631Z,4.60
2023-02-14T02:35:42.782Z,4.65
2023-02-14T02:38:18.639Z,4.35
2023-02-14T02:40:48.761Z,4.07
2023-02-14T02:46:06.647Z,4.00
2023-02-14T02:48:37.992Z,3.78
2023-02-14T02:51:26.293Z,4.30
2023-02-14T02:53:55.214Z,4.05
2023-02-14T02:56:41.385Z,3.85
2023-02-14T02:59:18.133Z,3.15
2023-02-14T03:01:47.913Z,3.42
2023-02-14T03:04:32.837Z,3.90
2023-02-14T03:07:01.549Z,4.05
2023-02-14T03:09:52.596Z,3.60
2023-02-14T03:12:26.147Z,3.45
2023-02-14T03:14:57.008Z,3.50
2023-02-14T03:17:28.085Z,3.53
2023-02-14T03:20:14.201Z,3.88
2023-02-14T03:22:50.346Z,3.50
2023-02-14T03:25:24.044Z,3.40
2023-02-14T03:27:54.553Z,3.55
2023-02-14T03:30:25.930Z,3.35
2023-02-14T03:32:56.500Z,3.30
2023-02-14T03:35:25.235Z,3.47
2023-02-14T03:37:56.039Z,3.45
2023-02-14T03:40:24.243Z,3.00
2023-02-14T03:42:52.916Z,3.13
2023-02-14T03:45:23.544Z,3.40
2023-02-14T03:47:51.071Z,3.33
2023-02-14T03:50:19.580Z,3.13
2023-02-14T03:52:46.960Z,2.92
2023-02-14T03:55:16.752Z,3.33
2023-02-14T03:57:48.534Z,3.35
2023-02-14T04:00:18.229Z,2.85
2023-02-14T04:02:46.569Z,3.20
2023-02-14T04:05:16.306Z,3.00
2023-02-14T04:07:47.226Z,3.00
2023-02-14T04:10:16.168Z,3.47
2023-02-14T04:12:43.618Z,3.30
2023-02-14T04:15:11.330Z,3.83
2023-02-14T04:17:56.352Z,3.30
2023-02-14T04:20:23.754Z,3.10
2023-02-14T04:22:52.104Z,2.92
2023-02-14T04:25:20.924Z,2.90
2023-02-14T04:27:48.326Z,3.40
2023-02-14T04:30:17.863Z,3.58
2023-02-14T04:32:45.357Z,3.33
2023-02-14T04:35:12.733Z,3.22
2023-02-14T04:37:40.212Z,3.40
2023-02-14T04:40:08.634Z,3.13
2023-02-14T04:42:37.317Z,3.53
2023-02-14T04:45:05.065Z,3.10
2023-02-14T04:47:32.449Z,3.20
2023-02-14T04:49:59.906Z,3.33
2023-02-14T04:52:27.280Z,3.25
2023-02-14T04:54:54.642Z,3.47
2023-02-14T04:57:21.997Z,3.17
2023-02-14T04:59:50.694Z,3.38
2023-02-14T05:02:18.091Z,3.10
2023-02-14T05:04:45.512Z,3.38
2023-02-14T05:07:12.883Z,3.53
2023-02-14T05:09:40.253Z,2.97
2023-02-14T05:12:07.873Z,3.53
2023-02-14T05:14:35.258Z,3.00
2023-02-14T05:17:03.965Z,3.10
2023-02-14T05:19:31.336Z,3.20
2023-02-14T05:21:58.708Z,3.00
2023-02-14T05:24:26.092Z,3.05
2023-02-14T05:26:53.465Z,3.35
2023-02-14T05:29:20.862Z,2.88
2023-02-14T05:31:48.333Z,3.20
2023-02-14T05:34:17.108Z,3.13
2023-02-14T05:36:44.474Z,3.45
2023-02-14T05:39:14.347Z,3.33
2023-02-14T05:41:41.900Z,3.65
2023-02-14T05:44:09.290Z,3.60
2023-02-14T05:46:36.652Z,3.78
2023-02-14T05:49:04.090Z,3.55
2023-02-14T05:51:32.788Z,3.17
2023-02-14T05:54:01.061Z,3.40
2023-02-14T05:56:28.484Z,3.40
2023-02-14T05:58:55.868Z,3.70
2023-02-14T06:01:23.274Z,3.60
2023-02-14T06:03:50.632Z,3.65
2023-02-14T06:06:18.006Z,4.25
2023-02-14T06:08:46.690Z,3.60
2023-02-14T06:11:14.063Z,4.00
2023-02-14T06:13:41.564Z,3.78
2023-02-14T06:16:08.999Z,3.70
2023-02-14T06:18:36.413Z,4.30
2023-02-14T06:21:04.128Z,4.28
2023-02-14T06:23:31.507Z,3.50
2023-02-14T06:26:00.411Z,3.65
2023-02-14T06:28:27.848Z,3.78
2023-02-14T06:30:55.397Z,4.00
2023-02-14T06:33:22.852Z,4.25
2023-02-14T06:35:50.265Z,4.60
2023-02-14T06:38:17.764Z,5.03
2023-02-14T06:40:45.171Z,4.47
2023-02-14T06:43:13.858Z,4.45
2023-02-14T06:45:43.534Z,5.18
2023-02-14T06:48:11.123Z,5.45
2023-02-14T06:50:38.548Z,4.95
2023-02-14T06:53:06.134Z,5.32
2023-02-14T06:55:33.533Z,5.35
2023-02-14T06:58:00.888Z,5.20
2023-02-14T07:00:29.660Z,5.82
2023-02-14T07:02:57.311Z,5.88
2023-02-14T07:05:24.750Z,6.05
2023-02-14T07:07:52.100Z,6.15
2023-02-14T07:10:19.759Z,5.47
2023-02-14T07:12:47.148Z,5.68
2023-02-14T07:15:14.698Z,5.63
2023-02-14T07:17:43.393Z,5.10
2023-02-14T07:20:11.570Z,5.30
2023-02-14T07:22:39.046Z,5.53
2023-02-14T07:25:07.156Z,5.22
2023-02-14T07:27:34.665Z,5.10
2023-02-14T07:30:02.118Z,4.82
2023-02-14T07:34:51.802Z,4.40
2023-02-14T07:37:19.191Z,4.63
2023-02-14T07:39:46.653Z,4.47
2023-02-14T07:42:14.075Z,4.30
2023-02-14T07:44:42.031Z,5.70
2023-02-14T07:47:09.605Z,5.00
2023-02-14T07:49:37.633Z,5.15
2023-02-14T07:52:06.323Z,5.15
2023-02-14T07:54:34.067Z,5.68
2023-02-14T07:57:01.465Z,6.18
2023-02-14T07:59:29.047Z,6.00
2023-02-14T08:01:56.488Z,6.38
2023-02-14T08:04:25.915Z,6.93
2023-02-14T08:06:53.406Z,7.45
2023-02-14T08:09:25.391Z,7.47
2023-02-14T08:12:10.499Z,8.30
2023-02-14T08:14:37.915Z,8.07
2023-02-14T08:17:07.163Z,7.80
2023-02-14T08:19:34.718Z,8.87
2023-02-14T08:22:02.096Z,8.02
2023-02-14T08:24:31.072Z,8.30
2023-02-14T08:26:58.510Z,8.93
2023-02-14T08:29:25.971Z,9.18
2023-02-14T08:31:53.799Z,8.63
2023-02-14T08:34:21.261Z,9.10
2023-02-14T08:36:48.652Z,10.18
2023-02-14T08:39:16.045Z,10.57
2023-02-14T08:41:44.760Z,10.25
2023-02-14T08:44:12.140Z,9.65
2023-02-14T08:46:39.602Z,9.95
2023-02-14T08:49:07.102Z,10.10
2023-02-14T08:51:34.528Z,10.45
2023-02-14T08:54:01.920Z,10.70
2023-02-14T08:56:29.336Z,11.13
2023-02-14T08:58:58.085Z,10.40
2023-02-14T09:01:25.508Z,11.35
2023-02-14T09:03:53.051Z,13.15
2023-02-14T09:06:20.708Z,15.32
2023-02-14T09:08:48.104Z,15.60
2023-02-14T09:11:18.341Z,17.15
2023-02-14T09:13:45.940Z,14.93
2023-02-14T09:16:16.445Z,16.27
2023-02-14T09:18:43.900Z,14.52
2023-02-14T09:21:12.300Z,15.18
2023-02-14T09:23:39.702Z,14.40
2023-02-14T09:26:08.472Z,13.30
2023-02-14T09:28:36.017Z,13.85
2023-02-14T09:31:09.524Z,13.35
2023-02-14T09:33:38.306Z,13.98
2023-02-14T09:36:24.157Z,12.30
2023-02-14T09:38:51.558Z,12.90
2023-02-14T09:41:51.545Z,12.43
2023-02-14T09:44:24.847Z,12.13
2023-02-14T09:46:54.342Z,11.85
2023-02-14T09:49:29.335Z,11.85
2023-02-14T09:51:56.760Z,10.63
2023-02-14T09:54:27.308Z,10.82
2023-02-14T09:56:56.666Z,10.55
2023-02-14T09:59:27.327Z,10.55
2023-02-14T10:01:57.613Z,10.50
2023-02-14T10:04:28.311Z,9.85
2023-02-14T10:06:58.145Z,10.20
2023-02-14T10:09:36.637Z,9.95
2023-02-14T10:12:04.173Z,10.13
2023-02-14T10:14:33.744Z,10.13
2023-02-14T10:17:05.017Z,10.00
2023-02-14T10:19:35.405Z,8.45
2023-02-14T10:22:05.292Z,9.38
2023-02-14T10:24:34.637Z,9.00
2023-02-14T10:29:45.586Z,8.88
2023-02-14T10:32:14.782Z,8.40
2023-02-14T10:34:46.480Z,8.13
2023-02-14T10:37:22.309Z,8.73
2023-02-14T10:39:57.671Z,7.82
2023-02-14T10:42:26.987Z,8.00
2023-02-14T10:44:56.910Z,7.93
2023-02-14T10:47:37.460Z,7.78
2023-02-14T10:50:11.947Z,7.80
2023-02-14T10:52:41.403Z,7.40
2023-02-14T10:55:20.219Z,7.45
2023-02-14T10:57:57.630Z,6.82
2023-02-14T11:00:26.428Z,6.93
2023-02-14T11:02:57.301Z,7.47
2023-02-14T11:05:28.449Z,6.30
2023-02-14T11:07:56.366Z,6.60
2023-02-14T11:10:26.151Z,6.68
2023-02-14T11:12:53.664Z,6.18
2023-02-14T11:15:23.992Z,6.50
2023-02-14T11:17:52.009Z,6.30
2023-02-14T11:20:25.046Z,6.45
2023-02-14T11:22:53.817Z,6.03
2023-02-14T11:25:25.386Z,5.93
2023-02-14T11:27:57.457Z,5.20
2023-02-14T11:30:28.170Z,5.82
2023-02-14T11:32:56.253Z,5.93
2023-02-14T11:35:27.075Z,5.63
2023-02-14T11:37:56.722Z,5.30
2023-02-14T11:40:29.916Z,5.82
2023-02-14T11:43:13.320Z,5.13
2023-02-14T11:45:42.896Z,5.20
2023-02-14T11:48:22.047Z,4.95
2023-02-14T11:50:57.069Z,5.32
2023-02-14T11:53:27.679Z,5.60
2023-02-14T11:55:56.407Z,5.53
2023-02-14T11:58:31.592Z,5.35
2023-02-14T12:00:59.780Z,5.05
2023-02-14T12:03:28.111Z,5.05
2023-02-14T12:06:00.307Z,4.97
2023-02-14T12:08:29.861Z,4.32
2023-02-14T12:11:04.134Z,4.95
2023-02-14T12:13:31.512Z,4.75
2023-02-14T12:15:59.325Z,5.10
2023-02-14T12:18:52.448Z,4.70
2023-02-14T12:21:37.696Z,4.45
2023-02-14T12:24:12.575Z,4.25
2023-02-14T12:26:41.617Z,4.50
2023-02-14T12:29:13.599Z,4.55
2023-02-14T12:31:41.328Z,4.35
2023-02-14T12:34:10.491Z,4.18
2023-02-14T12:36:49.066Z,4.03
2023-02-14T12:39:21.142Z,4.65
2023-02-14T12:41:50.133Z,4.10
2023-02-14T12:44:20.343Z,4.25
2023-02-14T12:49:55.587Z,4.10
2023-02-14T12:52:32.281Z,4.30
2023-02-14T12:55:07.121Z,4.05
2023-02-14T12:57:38.240Z,3.70
2023-02-14T13:00:18.011Z,3.92
2023-02-14T13:03:11.363Z,4.07
2023-02-14T13:05:46.524Z,3.83
2023-02-14T13:08:24.916Z,3.72
2023-02-14T13:10:55.754Z,3.63
2023-02-14T13:13:28.506Z,4.00
2023-02-14T13:15:58.954Z,3.35
2023-02-14T13:18:34.448Z,3.78
2023-02-14T13:21:02.623Z,3.80
2023-02-14T13:23:31.628Z,3.72
2023-02-14T13:26:01.656Z,3.88
2023-02-14T13:28:29.313Z,3.40
2023-02-14T13:30:56.829Z,3.88
2023-02-14T13:33:30.115Z,3.30
2023-02-14T13:36:00.394Z,3.42
2023-02-14T13:38:28.345Z,3.15
2023-02-14T13:40:55.988Z,3.33
2023-02-14T13:43:53.364Z,3.17
2023-02-14T13:46:22.733Z,3.33
2023-02-14T13:48:58.157Z,3.20
2023-02-14T13:51:44.823Z,3.33
2023-02-14T13:54:21.594Z,3.05
2023-02-14T13:56:48.992Z,2.85
2023-02-14T13:59:28.014Z,3.00
2023-02-14T14:01:56.079Z,2.53
2023-02-14T14:04:37.006Z,2.78
2023-02-14T14:07:16.678Z,3.03
2023-02-14T14:09:54.094Z,2.90
2023-02-14T14:12:38.104Z,2.78
2023-02-14T14:15:17.236Z,2.90
2023-02-14T14:17:46.375Z,3.10
2023-02-14T14:20:40.599Z,3.10
2023-02-14T14:23:32.861Z,2.75
2023-02-14T14:26:01.132Z,2.70
2023-02-14T14:28:29.650Z,2.90
2023-02-14T14:30:58.400Z,2.30
2023-02-14T14:33:27.316Z,3.03
2023-02-14T14:35:55.330Z,2.90
2023-02-14T14:38:22.935Z,2.83
2023-02-14T14:40:50.305Z,2.88
2023-02-14T14:43:25.301Z,2.50
2023-02-14T14:45:53.267Z,2.78
2023-02-14T14:48:27.108Z,2.72
2023-02-14T14:50:54.855Z,2.72
2023-02-14T14:53:23.067Z,2.95
2023-02-14T14:55:52.236Z,2.78
2023-02-14T14:58:34.245Z,2.87
2023-02-14T15:01:01.694Z,2.50
2023-02-14T15:03:30.492Z,2.60
2023-02-14T15:06:06.393Z,2.72
2023-02-14T15:08:33.912Z,2.80
2023-02-14T15:11:02.923Z,2.83
2023-02-14T15:13:53.338Z,2.60
2023-02-14T15:16:21.832Z,2.90
2023-02-14T15:18:50.651Z,2.42
2023-02-14T15:21:18.082Z,2.95
2023-02-14T15:23:45.599Z,2.80
2023-02-14T15:26:17.860Z,2.45
2023-02-14T15:28:45.260Z,2.35
2023-02-14T15:31:12.737Z,2.80
2023-02-14T15:33:40.228Z,2.90
2023-02-14T15:36:09.591Z,3.15
2023-02-14T15:38:37.756Z,2.65
2023-02-14T15:41:05.123Z,2.72
2023-02-14T15:43:33.187Z,2.70
2023-02-14T15:46:02.832Z,2.95
2023-02-14T15:48:30.992Z,2.78
2023-02-14T15:50:59.748Z,2.70
2023-02-14T15:53:36.221Z,2.65
2023-02-14T15:56:07.949Z,2.30
2023-02-14T15:58:36.042Z,3.05
2023-02-14T16:01:03.790Z,3.10
2023-02-14T16:03:35.716Z,2.55
2023-02-14T16:06:03.386Z,2.60
2023-02-14T16:08:32.830Z,2.83
2023-02-14T16:11:02.075Z,2.75
2023-02-14T16:13:34.396Z,2.72
2023-02-14T16:16:02.566Z,2.70
2023-02-14T16:18:34.896Z,2.90
2023-02-14T16:21:18.461Z,2.55
2023-02-14T16:23:47.438Z,3.03
2023-02-14T16:26:14.940Z,2.85
2023-02-14T16:28:43.473Z,2.55
2023-02-14T16:31:14.485Z,3.00
2023-02-14T16:33:41.958Z,2.80
2023-02-14T16:36:14.332Z,2.80
2023-02-14T16:38:43.447Z,2.92
2023-02-14T16:41:16.742Z,3.20
2023-02-14T16:43:44.232Z,3.33
2023-02-14T16:46:13.039Z,3.30
2023-02-14T16:48:40.436Z,2.70
2023-02-14T16:51:07.820Z,3.10
2023-02-14T16:53:36.033Z,2.83
2023-02-14T16:56:03.427Z,2.97
2023-02-14T16:58:33.384Z,3.17
2023-02-14T17:01:01.187Z,3.10
2023-02-14T17:03:28.896Z,3.08
2023-02-14T17:05:57.510Z,2.90
2023-02-14T17:08:24.890Z,2.97
2023-02-14T17:10:52.338Z,3.47
2023-02-14T17:13:20.786Z,3.28
2023-02-14T17:15:49.564Z,3.45
2023-02-14T17:18:16.983Z,3.00
2023-02-14T17:20:44.574Z,2.75
2023-02-14T17:23:11.949Z,3.50
2023-02-14T17:25:39.558Z,3.40
2023-02-14T17:28:06.927Z,3.30
2023-02-14T17:30:34.361Z,2.80
2023-02-14T17:33:03.320Z,3.20
2023-02-14T17:35:30.879Z,3.42
2023-02-14T17:37:58.244Z,3.33
2023-02-14T17:40:25.608Z,3.08
2023-02-14T17:42:52.963Z,3.22
2023-02-14T17:45:20.342Z,3.33
2023-02-14T17:47:47.725Z,3.33
2023-02-14T17:50:18.075Z,3.10
2023-02-14T17:52:45.788Z,3.63
2023-02-14T17:55:13.807Z,3.30
2023-02-14T17:57:41.484Z,3.30
2023-02-14T18:00:11.711Z,3.28
2023-02-14T18:02:39.452Z,3.28
2023-02-14T18:05:08.158Z,3.67
2023-02-14T18:07:38.019Z,3.45
2023-02-14T18:10:06.263Z,3.20
2023-02-14T18:12:33.664Z,3.40
2023-02-14T18:15:01.041Z,3.33
2023-02-14T18:17:28.444Z,3.55
2023-02-14T18:19:55.839Z,3.40
2023-02-14T18:22:23.204Z,4.18
2023-02-14T18:24:51.894Z,3.20
2023-02-14T18:27:19.254Z,3.17
2023-02-14T18:29:46.677Z,3.80
2023-02-14T18:32:14.070Z,3.70
2023-02-14T18:34:41.464Z,3.80
2023-02-14T18:37:08.957Z,3.28
2023-02-14T18:39:36.322Z,3.47
2023-02-14T18:42:05.395Z,3.30
2023-02-14T18:44:33.371Z,3.17
2023-02-14T18:47:01.937Z,3.00
2023-02-14T18:49:29.471Z,3.80
2023-02-14T18:51:58.663Z,3.30
2023-02-14T18:54:26.055Z,4.03
2023-02-14T18:56:53.436Z,3.53
2023-02-14T18:59:22.112Z,3.55
2023-02-14T19:01:49.483Z,3.58
2023-02-14T19:04:17.837Z,3.55
2023-02-14T19:06:45.228Z,3.60
2023-02-14T19:09:13.671Z,3.63
2023-02-14T19:11:41.216Z,3.78
2023-02-14T19:14:10.281Z,3.75
2023-02-14T19:16:40.867Z,3.72
2023-02-14T19:19:08.377Z,3.30
2023-02-14T19:21:36.541Z,3.35
2023-02-14T19:24:06.740Z,3.40
2023-02-14T19:29:03.329Z,3.80
2023-02-14T19:31:31.114Z,3.35
2023-02-14T19:33:59.905Z,3.70
2023-02-14T19:36:27.347Z,3.65
2023-02-14T19:38:55.038Z,3.65
2023-02-14T19:41:23.698Z,3.83
2023-02-14T19:43:51.702Z,4.07
2023-02-14T19:46:19.737Z,3.80
2023-02-14T19:48:47.363Z,3.67
2023-02-14T19:51:17.246Z,4.15
2023-02-14T19:53:45.047Z,3.95
2023-02-14T19:56:12.902Z,3.40
2023-02-14T19:58:40.917Z,4.10
2023-02-14T20:01:08.348Z,3.58
2023-02-14T20:03:37.004Z,3.50
2023-02-14T20:06:04.439Z,3.40
2023-02-14T20:08:33.159Z,3.40
2023-02-14T20:11:00.908Z,3.72
2023-02-14T20:13:28.447Z,3.65
2023-02-14T20:15:55.836Z,3.80
2023-02-14T20:18:23.200Z,3.95
2023-02-14T20:21:02.887Z,4.00
2023-02-14T20:23:30.369Z,3.80
2023-02-14T20:25:59.051Z,3.92
2023-02-14T20:28:26.426Z,3.78
2023-02-14T20:30:54.148Z,3.72
2023-02-14T20:33:21.562Z,3.92
2023-02-14T20:35:48.966Z,3.95
2023-02-14T20:38:16.501Z,4.18
2023-02-14T20:40:44.460Z,3.55
2023-02-14T20:43:13.143Z,4.10
2023-02-14T20:45:40.531Z,4.32
2023-02-14T20:48:08.012Z,4.13
2023-02-14T20:50:35.655Z,4.25
2023-02-14T20:53:03.024Z,3.72
2023-02-14T20:55:31.128Z,4.22
2023-02-14T20:58:02.185Z,4.00
2023-02-14T21:00:30.981Z,3.63
2023-02-14T21:02:59.253Z,3.35
2023-02-14T21:05:26.702Z,4.20
2023-02-14T21:07:54.076Z,4.53
2023-02-14T21:10:21.805Z,4.82
2023-02-14T21:12:49.985Z,4.32
2023-02-14T21:15:17.480Z,4.30
2023-02-14T21:17:46.157Z,4.55
2023-02-14T21:20:14.918Z,4.65
2023-02-14T21:22:42.282Z,4.78
2023-02-14T21:25:09.651Z,4.40
2023-02-14T21:27:37.983Z,4.47
2023-02-14T21:30:06.807Z,4.28
2023-02-14T21:32:34.220Z,4.57
2023-02-14T21:35:02.986Z,4.75
2023-02-14T21:37:30.381Z,4.57
2023-02-14T21:39:57.789Z,4.30
2023-02-14T21:42:25.992Z,4.70
2023-02-14T21:45:25.737Z,4.53
2023-02-14T21:48:07.169Z,5.00
2023-02-14T21:50:37.314Z,4.88
2023-02-14T21:55:34.921Z,4.80
2023-02-14T21:58:02.408Z,4.53
2023-02-14T22:00:29.811Z,4.25
2023-02-14T22:02:57.225Z,4.65
2023-02-14T22:05:25.772Z,4.80
2023-02-14T22:07:54.459Z,4.47
2023-02-14T22:10:21.856Z,4.55
2023-02-14T22:12:49.266Z,4.47
2023-02-14T22:15:16.860Z,5.15
2023-02-14T22:17:44.313Z,4.97
2023-02-14T22:20:12.181Z,5.20
2023-02-14T22:22:39.562Z,5.15
2023-02-14T22:25:08.842Z,5.03
2023-02-14T22:27:38.955Z,4.90
2023-02-14T22:30:07.547Z,5.18
2023-02-14T22:32:35.006Z,4.93
2023-02-14T22:35:03.067Z,5.22
2023-02-14T22:37:30.467Z,4.97
2023-02-14T22:39:57.987Z,5.15
2023-02-14T22:42:26.706Z,5.32
2023-02-14T22:44:54.201Z,5.28
2023-02-14T22:47:21.598Z,4.90
2023-02-14T22:49:48.998Z,5.90
2023-02-14T22:52:16.412Z,5.50
2023-02-14T22:54:43.802Z,5.07
2023-02-14T22:57:11.201Z,5.97
2023-02-14T22:59:40.203Z,5.68
2023-02-14T23:02:07.945Z,5.65
2023-02-14T23:04:35.414Z,5.28
2023-02-14T23:07:02.799Z,5.40
2023-02-14T23:09:30.290Z,5.55
2023-02-14T23:11:57.757Z,5.72
2023-02-14T23:14:43.026Z,5.65
2023-02-14T23:17:33.150Z,5.78
2023-02-14T23:20:17.887Z,5.55
2023-02-14T23:22:45.304Z,6.03
2023-02-14T23:25:12.923Z,6.18
2023-02-14T23:27:41.878Z,5.85
2023-02-14T23:30:10.833Z,6.10
2023-02-14T23:32:39.570Z,5.20
2023-02-14T23:35:07.269Z,5.75
2023-02-14T23:37:34.679Z,6.22
2023-02-14T23:40:02.174Z,6.22
2023-02-14T23:42:29.600Z,6.00
2023-02-14T23:45:17.542Z,5.50
2023-02-14T23:47:46.251Z,5.45
2023-02-14T23:50:13.707Z,5.68
2023-02-14T23:52:41.629Z,6.05
2023-02-14T23:55:09.106Z,5.70
2023-02-14T23:57:36.914Z,5.65
